sensor_id;sensor_type;location;lat;lon;timestamp;temperature;humidity
53653;DHT22;39553;52.954;5.932;2023-04-06T00:01:38;3.20;74.70
53653;DHT22;39553;52.954;5.932;2023-04-06T00:04:05;3.20;74.60
53653;DHT22;39553;52.954;5.932;2023-04-06T00:06:32;3.20;75.70
53653;DHT22;39553;52.954;5.932;2023-04-06T00:08:59;3.20;75.80
53653;DHT22;39553;52.954;5.932;2023-04-06T00:11:25;3.20;76.40
53653;DHT22;39553;52.954;5.932;2023-04-06T00:13:51;3.10;76.60
53653;DHT22;39553;52.954;5.932;2023-04-06T00:16:17;3.10;77.30
53653;DHT22;39553;52.954;5.932;2023-04-06T00:18:43;3.10;78.10
53653;DHT22;39553;52.954;5.932;2023-04-06T00:21:11;3.00;78.00
53653;DHT22;39553;52.954;5.932;2023-04-06T00:23:38;3.00;78.90
53653;DHT22;39553;52.954;5.932;2023-04-06T00:26:05;3.00;79.80
53653;DHT22;39553;52.954;5.932;2023-04-06T00:28:30;3.00;80.60
53653;DHT22;39553;52.954;5.932;2023-04-06T00:30:56;3.00;80.80
53653;DHT22;39553;52.954;5.932;2023-04-06T00:33:23;3.00;81.00
53653;DHT22;39553;52.954;5.932;2023-04-06T00:35:48;2.90;80.70
53653;DHT22;39553;52.954;5.932;2023-04-06T00:38:15;2.90;81.00
53653;DHT22;39553;52.954;5.932;2023-04-06T00:40:41;2.90;81.30
53653;DHT22;39553;52.954;5.932;2023-04-06T00:43:07;3.00;81.50
53653;DHT22;39553;52.954;5.932;2023-04-06T00:45:37;2.80;81.30
53653;DHT22;39553;52.954;5.932;2023-04-06T00:48:03;2.70;82.20
53653;DHT22;39553;52.954;5.932;2023-04-06T00:50:29;2.70;81.70
53653;DHT22;39553;52.954;5.932;2023-04-06T00:52:55;2.70;82.90
53653;DHT22;39553;52.954;5.932;2023-04-06T00:55:21;2.80;82.50
53653;DHT22;39553;52.954;5.932;2023-04-06T00:57:47;2.70;83.60
53653;DHT22;39553;52.954;5.932;2023-04-06T01:00:13;2.70;82.90
53653;DHT22;39553;52.954;5.932;2023-04-06T01:02:40;2.70;83.80
53653;DHT22;39553;52.954;5.932;2023-04-06T01:05:06;2.70;83.80
53653;DHT22;39553;52.954;5.932;2023-04-06T01:07:32;2.60;83.70
53653;DHT22;39553;52.954;5.932;2023-04-06T01:09:58;2.60;84.90
53653;DHT22;39553;52.954;5.932;2023-04-06T01:12:24;2.60;84.70
53653;DHT22;39553;52.954;5.932;2023-04-06T01:14:50;2.60;85.80
53653;DHT22;39553;52.954;5.932;2023-04-06T01:17:16;2.60;85.80
53653;DHT22;39553;52.954;5.932;2023-04-06T01:19:42;2.50;86.00
53653;DHT22;39553;52.954;5.932;2023-04-06T01:22:08;2.50;86.40
53653;DHT22;39553;52.954;5.932;2023-04-06T01:24:34;2.50;86.60
53653;DHT22;39553;52.954;5.932;2023-04-06T01:27:00;2.50;86.70
53653;DHT22;39553;52.954;5.932;2023-04-06T01:29:26;2.40;86.70
53653;DHT22;39553;52.954;5.932;2023-04-06T01:31:52;2.40;88.10
53653;DHT22;39553;52.954;5.932;2023-04-06T01:34:18;2.40;88.80
53653;DHT22;39553;52.954;5.932;2023-04-06T01:36:44;2.40;89.30
53653;DHT22;39553;52.954;5.932;2023-04-06T01:39:09;2.40;89.10
53653;DHT22;39553;52.954;5.932;2023-04-06T01:41:35;2.40;89.70
53653;DHT22;39553;52.954;5.932;2023-04-06T01:44:02;2.30;88.80
53653;DHT22;39553;52.954;5.932;2023-04-06T01:46:28;2.40;90.00
53653;DHT22;39553;52.954;5.932;2023-04-06T01:48:53;2.30;90.20
53653;DHT22;39553;52.954;5.932;2023-04-06T01:51:19;2.30;89.80
53653;DHT22;39553;52.954;5.932;2023-04-06T01:53:45;2.20;89.30
53653;DHT22;39553;52.954;5.932;2023-04-06T01:56:11;2.20;90.30
53653;DHT22;39553;52.954;5.932;2023-04-06T01:58:37;2.20;90.20
53653;DHT22;39553;52.954;5.932;2023-04-06T02:01:03;2.20;90.50
53653;DHT22;39553;52.954;5.932;2023-04-06T02:03:29;2.20;90.20
53653;DHT22;39553;52.954;5.932;2023-04-06T02:05:55;2.10;90.10
53653;DHT22;39553;52.954;5.932;2023-04-06T02:08:20;2.10;90.10
53653;DHT22;39553;52.954;5.932;2023-04-06T02:10:46;2.10;90.10
53653;DHT22;39553;52.954;5.932;2023-04-06T02:13:12;2.10;90.90
53653;DHT22;39553;52.954;5.932;2023-04-06T02:15:38;2.10;90.70
53653;DHT22;39553;52.954;5.932;2023-04-06T02:18:03;2.40;90.80
53653;DHT22;39553;52.954;5.932;2023-04-06T02:20:29;2.10;90.80
53653;DHT22;39553;52.954;5.932;2023-04-06T02:22:58;2.10;90.80
53653;DHT22;39553;52.954;5.932;2023-04-06T02:25:24;2.00;91.00
53653;DHT22;39553;52.954;5.932;2023-04-06T02:27:49;2.00;90.90
53653;DHT22;39553;52.954;5.932;2023-04-06T02:30:15;1.90;91.00
53653;DHT22;39553;52.954;5.932;2023-04-06T02:32:41;1.90;91.00
53653;DHT22;39553;52.954;5.932;2023-04-06T02:35:07;1.90;91.40
53653;DHT22;39553;52.954;5.932;2023-04-06T02:37:33;1.90;91.60
53653;DHT22;39553;52.954;5.932;2023-04-06T02:39:58;1.80;91.60
53653;DHT22;39553;52.954;5.932;2023-04-06T02:42:24;1.80;91.70
53653;DHT22;39553;52.954;5.932;2023-04-06T02:44:50;1.80;91.40
53653;DHT22;39553;52.954;5.932;2023-04-06T02:47:15;1.80;92.10
53653;DHT22;39553;52.954;5.932;2023-04-06T02:49:41;1.70;92.10
53653;DHT22;39553;52.954;5.932;2023-04-06T02:52:07;1.80;92.10
53653;DHT22;39553;52.954;5.932;2023-04-06T02:54:33;1.70;92.00
53653;DHT22;39553;52.954;5.932;2023-04-06T02:56:58;1.80;92.10
53653;DHT22;39553;52.954;5.932;2023-04-06T02:59:24;1.60;93.10
53653;DHT22;39553;52.954;5.932;2023-04-06T03:01:51;1.60;92.50
53653;DHT22;39553;52.954;5.932;2023-04-06T03:04:16;1.60;92.80
53653;DHT22;39553;52.954;5.932;2023-04-06T03:06:42;1.60;92.60
53653;DHT22;39553;52.954;5.932;2023-04-06T03:09:08;1.60;93.00
53653;DHT22;39553;52.954;5.932;2023-04-06T03:11:34;1.60;92.70
53653;DHT22;39553;52.954;5.932;2023-04-06T03:14:00;1.60;92.60
53653;DHT22;39553;52.954;5.932;2023-04-06T03:16:25;1.70;92.80
53653;DHT22;39553;52.954;5.932;2023-04-06T03:18:51;1.60;93.10
53653;DHT22;39553;52.954;5.932;2023-04-06T03:21:17;1.60;93.10
53653;DHT22;39553;52.954;5.932;2023-04-06T03:23:44;1.50;93.00
53653;DHT22;39553;52.954;5.932;2023-04-06T03:26:10;1.50;93.30
53653;DHT22;39553;52.954;5.932;2023-04-06T03:28:36;1.50;93.50
53653;DHT22;39553;52.954;5.932;2023-04-06T03:31:02;1.50;93.40
53653;DHT22;39553;52.954;5.932;2023-04-06T03:33:27;1.50;93.80
53653;DHT22;39553;52.954;5.932;2023-04-06T03:35:53;1.50;93.30
53653;DHT22;39553;52.954;5.932;2023-04-06T03:38:19;1.50;94.00
53653;DHT22;39553;52.954;5.932;2023-04-06T03:40:46;1.50;94.10
53653;DHT22;39553;52.954;5.932;2023-04-06T03:43:12;2.10;93.60
53653;DHT22;39553;52.954;5.932;2023-04-06T03:45:37;1.50;93.70
53653;DHT22;39553;52.954;5.932;2023-04-06T03:48:04;1.40;94.10
53653;DHT22;39553;52.954;5.932;2023-04-06T03:50:30;1.40;93.90
53653;DHT22;39553;52.954;5.932;2023-04-06T03:52:56;1.40;94.10
53653;DHT22;39553;52.954;5.932;2023-04-06T03:55:21;1.40;94.10
53653;DHT22;39553;52.954;5.932;2023-04-06T03:57:47;1.40;94.00
53653;DHT22;39553;52.954;5.932;2023-04-06T04:00:13;1.40;93.90
53653;DHT22;39553;52.954;5.932;2023-04-06T04:02:39;1.40;94.10
53653;DHT22;39553;52.954;5.932;2023-04-06T04:05:06;1.40;94.80
53653;DHT22;39553;52.954;5.932;2023-04-06T04:07:31;1.40;94.50
53653;DHT22;39553;52.954;5.932;2023-04-06T04:09:57;1.40;94.00
53653;DHT22;39553;52.954;5.932;2023-04-06T04:12:23;1.50;94.20
53653;DHT22;39553;52.954;5.932;2023-04-06T04:14:49;1.40;94.40
53653;DHT22;39553;52.954;5.932;2023-04-06T04:17:14;1.40;94.20
53653;DHT22;39553;52.954;5.932;2023-04-06T04:19:40;1.40;94.30
53653;DHT22;39553;52.954;5.932;2023-04-06T04:22:06;1.40;94.90
53653;DHT22;39553;52.954;5.932;2023-04-06T04:24:32;1.50;94.90
53653;DHT22;39553;52.954;5.932;2023-04-06T04:26:59;1.40;94.70
53653;DHT22;39553;52.954;5.932;2023-04-06T04:29:26;2.30;95.10
53653;DHT22;39553;52.954;5.932;2023-04-06T04:31:52;1.40;94.60
53653;DHT22;39553;52.954;5.932;2023-04-06T04:34:18;1.60;94.70
53653;DHT22;39553;52.954;5.932;2023-04-06T04:36:46;1.40;94.60
53653;DHT22;39553;52.954;5.932;2023-04-06T04:39:12;1.40;94.90
53653;DHT22;39553;52.954;5.932;2023-04-06T04:41:37;1.40;94.50
53653;DHT22;39553;52.954;5.932;2023-04-06T04:44:03;1.50;94.70
53653;DHT22;39553;52.954;5.932;2023-04-06T04:46:29;1.50;95.00
53653;DHT22;39553;52.954;5.932;2023-04-06T04:48:55;1.50;95.00
53653;DHT22;39553;52.954;5.932;2023-04-06T04:51:21;1.50;94.90
53653;DHT22;39553;52.954;5.932;2023-04-06T04:53:47;1.50;94.70
53653;DHT22;39553;52.954;5.932;2023-04-06T04:56:12;1.50;94.70
53653;DHT22;39553;52.954;5.932;2023-04-06T04:58:38;1.60;94.90
53653;DHT22;39553;52.954;5.932;2023-04-06T05:01:04;1.60;94.70
53653;DHT22;39553;52.954;5.932;2023-04-06T05:03:30;1.60;94.80
53653;DHT22;39553;52.954;5.932;2023-04-06T05:05:56;1.60;94.50
53653;DHT22;39553;52.954;5.932;2023-04-06T05:08:21;1.60;94.50
53653;DHT22;39553;52.954;5.932;2023-04-06T05:10:47;2.20;94.90
53653;DHT22;39553;52.954;5.932;2023-04-06T05:13:14;1.60;94.80
53653;DHT22;39553;52.954;5.932;2023-04-06T05:15:40;1.60;94.80
53653;DHT22;39553;52.954;5.932;2023-04-06T05:18:07;1.70;94.70
53653;DHT22;39553;52.954;5.932;2023-04-06T05:20:34;1.80;94.70
53653;DHT22;39553;52.954;5.932;2023-04-06T05:23:00;1.80;94.70
53653;DHT22;39553;52.954;5.932;2023-04-06T05:25:26;1.80;94.70
53653;DHT22;39553;52.954;5.932;2023-04-06T05:27:55;1.80;94.60
53653;DHT22;39553;52.954;5.932;2023-04-06T05:30:21;1.90;94.40
53653;DHT22;39553;52.954;5.932;2023-04-06T05:32:47;1.90;94.40
53653;DHT22;39553;52.954;5.932;2023-04-06T05:35:13;1.90;94.50
53653;DHT22;39553;52.954;5.932;2023-04-06T05:37:39;1.90;94.20
53653;DHT22;39553;52.954;5.932;2023-04-06T05:40:06;2.00;94.40
53653;DHT22;39553;52.954;5.932;2023-04-06T05:42:42;2.10;94.30
53653;DHT22;39553;52.954;5.932;2023-04-06T05:45:11;2.10;94.20
53653;DHT22;39553;52.954;5.932;2023-04-06T05:47:42;2.20;94.30
53653;DHT22;39553;52.954;5.932;2023-04-06T05:50:15;2.30;94.10
53653;DHT22;39553;52.954;5.932;2023-04-06T05:52:41;2.30;94.00
53653;DHT22;39553;52.954;5.932;2023-04-06T05:55:09;2.50;94.20
53653;DHT22;39553;52.954;5.932;2023-04-06T05:57:36;2.70;93.80
53653;DHT22;39553;52.954;5.932;2023-04-06T06:00:01;2.90;93.10
53653;DHT22;39553;52.954;5.932;2023-04-06T06:02:30;3.00;92.90
53653;DHT22;39553;52.954;5.932;2023-04-06T06:04:57;3.10;92.50
53653;DHT22;39553;52.954;5.932;2023-04-06T06:07:23;3.20;92.50
53653;DHT22;39553;52.954;5.932;2023-04-06T06:09:49;3.20;92.60
53653;DHT22;39553;52.954;5.932;2023-04-06T06:12:15;3.30;92.50
53653;DHT22;39553;52.954;5.932;2023-04-06T06:14:41;3.40;92.30
53653;DHT22;39553;52.954;5.932;2023-04-06T06:17:07;3.40;92.10
53653;DHT22;39553;52.954;5.932;2023-04-06T06:19:33;3.30;92.00
53653;DHT22;39553;52.954;5.932;2023-04-06T06:21:59;3.40;92.00
53653;DHT22;39553;52.954;5.932;2023-04-06T06:24:27;3.40;91.90
53653;DHT22;39553;52.954;5.932;2023-04-06T06:26:53;3.50;92.00
53653;DHT22;39553;52.954;5.932;2023-04-06T06:29:19;3.50;92.00
53653;DHT22;39553;52.954;5.932;2023-04-06T06:31:44;3.60;92.00
53653;DHT22;39553;52.954;5.932;2023-04-06T06:34:10;3.80;92.00
53653;DHT22;39553;52.954;5.932;2023-04-06T06:36:38;4.10;91.60
53653;DHT22;39553;52.954;5.932;2023-04-06T06:39:04;4.50;91.20
53653;DHT22;39553;52.954;5.932;2023-04-06T06:41:30;4.80;91.00
53653;DHT22;39553;52.954;5.932;2023-04-06T06:43:55;5.00;90.50
53653;DHT22;39553;52.954;5.932;2023-04-06T06:46:21;5.20;90.20
53653;DHT22;39553;52.954;5.932;2023-04-06T06:48:47;5.60;90.40
53653;DHT22;39553;52.954;5.932;2023-04-06T06:51:13;6.00;89.80
53653;DHT22;39553;52.954;5.932;2023-04-06T06:53:38;6.50;88.40
53653;DHT22;39553;52.954;5.932;2023-04-06T06:56:05;7.00;86.90
53653;DHT22;39553;52.954;5.932;2023-04-06T06:58:30;7.20;85.50
53653;DHT22;39553;52.954;5.932;2023-04-06T07:01:02;7.50;84.60
53653;DHT22;39553;52.954;5.932;2023-04-06T07:03:30;7.50;83.20
53653;DHT22;39553;52.954;5.932;2023-04-06T07:05:56;7.30;82.90
53653;DHT22;39553;52.954;5.932;2023-04-06T07:08:23;7.10;83.40
53653;DHT22;39553;52.954;5.932;2023-04-06T07:10:50;7.00;82.90
53653;DHT22;39553;52.954;5.932;2023-04-06T07:13:18;6.90;83.60
53653;DHT22;39553;52.954;5.932;2023-04-06T07:15:47;6.70;83.20
53653;DHT22;39553;52.954;5.932;2023-04-06T07:18:13;6.60;83.40
53653;DHT22;39553;52.954;5.932;2023-04-06T07:20:39;6.50;83.60
53653;DHT22;39553;52.954;5.932;2023-04-06T07:23:06;6.50;84.20
53653;DHT22;39553;52.954;5.932;2023-04-06T07:25:33;6.40;84.40
53653;DHT22;39553;52.954;5.932;2023-04-06T07:27:59;6.40;84.80
53653;DHT22;39553;52.954;5.932;2023-04-06T07:30:25;6.40;84.40
53653;DHT22;39553;52.954;5.932;2023-04-06T07:32:53;6.50;84.40
53653;DHT22;39553;52.954;5.932;2023-04-06T07:35:21;6.50;84.70
53653;DHT22;39553;52.954;5.932;2023-04-06T07:37:47;6.60;83.50
53653;DHT22;39553;52.954;5.932;2023-04-06T07:40:13;6.80;83.90
53653;DHT22;39553;52.954;5.932;2023-04-06T07:42:39;7.00;83.60
53653;DHT22;39553;52.954;5.932;2023-04-06T07:45:05;7.20;83.20
53653;DHT22;39553;52.954;5.932;2023-04-06T07:47:32;7.40;82.10
53653;DHT22;39553;52.954;5.932;2023-04-06T07:49:58;7.50;82.00
53653;DHT22;39553;52.954;5.932;2023-04-06T07:52:24;7.70;82.00
53653;DHT22;39553;52.954;5.932;2023-04-06T07:54:50;7.90;81.80
53653;DHT22;39553;52.954;5.932;2023-04-06T07:57:18;8.10;81.10
53653;DHT22;39553;52.954;5.932;2023-04-06T07:59:44;8.40;80.40
53653;DHT22;39553;52.954;5.932;2023-04-06T08:02:10;8.70;80.00
53653;DHT22;39553;52.954;5.932;2023-04-06T08:04:36;9.00;80.10
53653;DHT22;39553;52.954;5.932;2023-04-06T08:07:02;9.30;79.40
53653;DHT22;39553;52.954;5.932;2023-04-06T08:09:28;9.50;76.90
53653;DHT22;39553;52.954;5.932;2023-04-06T08:11:53;9.60;75.00
53653;DHT22;39553;52.954;5.932;2023-04-06T08:14:19;9.70;74.10
53653;DHT22;39553;52.954;5.932;2023-04-06T08:16:45;9.80;72.20
53653;DHT22;39553;52.954;5.932;2023-04-06T08:19:11;9.90;71.30
53653;DHT22;39553;52.954;5.932;2023-04-06T08:21:37;10.00;71.50
53653;DHT22;39553;52.954;5.932;2023-04-06T08:24:03;10.10;70.60
53653;DHT22;39553;52.954;5.932;2023-04-06T08:26:29;10.40;71.00
53653;DHT22;39553;52.954;5.932;2023-04-06T08:28:55;10.80;70.10
53653;DHT22;39553;52.954;5.932;2023-04-06T08:31:20;11.00;67.60
53653;DHT22;39553;52.954;5.932;2023-04-06T08:33:48;11.10;68.50
53653;DHT22;39553;52.954;5.932;2023-04-06T08:36:14;11.10;68.40
53653;DHT22;39553;52.954;5.932;2023-04-06T08:38:41;11.00;67.30
53653;DHT22;39553;52.954;5.932;2023-04-06T08:41:09;10.80;66.60
53653;DHT22;39553;52.954;5.932;2023-04-06T08:43:43;10.70;67.30
53653;DHT22;39553;52.954;5.932;2023-04-06T08:46:11;10.70;66.50
53653;DHT22;39553;52.954;5.932;2023-04-06T08:48:39;10.90;68.20
53653;DHT22;39553;52.954;5.932;2023-04-06T08:51:06;11.20;66.90
53653;DHT22;39553;52.954;5.932;2023-04-06T08:53:31;11.30;66.70
53653;DHT22;39553;52.954;5.932;2023-04-06T08:55:58;11.50;66.20
53653;DHT22;39553;52.954;5.932;2023-04-06T08:58:26;11.60;65.50
53653;DHT22;39553;52.954;5.932;2023-04-06T09:00:53;11.70;64.70
53653;DHT22;39553;52.954;5.932;2023-04-06T09:03:20;12.00;64.60
53653;DHT22;39553;52.954;5.932;2023-04-06T09:05:46;12.30;63.90
53653;DHT22;39553;52.954;5.932;2023-04-06T09:08:13;12.60;63.70
53653;DHT22;39553;52.954;5.932;2023-04-06T09:10:42;12.80;62.50
53653;DHT22;39553;52.954;5.932;2023-04-06T09:13:08;12.70;61.10
53653;DHT22;39553;52.954;5.932;2023-04-06T09:15:35;12.70;61.70
53653;DHT22;39553;52.954;5.932;2023-04-06T09:18:01;13.00;61.50
53653;DHT22;39553;52.954;5.932;2023-04-06T09:20:27;13.30;60.70
53653;DHT22;39553;52.954;5.932;2023-04-06T09:22:54;13.30;60.20
53653;DHT22;39553;52.954;5.932;2023-04-06T09:25:22;13.20;59.50
53653;DHT22;39553;52.954;5.932;2023-04-06T09:27:57;13.10;59.10
53653;DHT22;39553;52.954;5.932;2023-04-06T09:30:23;12.80;58.70
53653;DHT22;39553;52.954;5.932;2023-04-06T09:32:55;12.50;59.30
53653;DHT22;39553;52.954;5.932;2023-04-06T09:35:22;12.30;59.00
53653;DHT22;39553;52.954;5.932;2023-04-06T09:37:50;12.10;59.20
53653;DHT22;39553;52.954;5.932;2023-04-06T09:40:16;11.90;58.90
53653;DHT22;39553;52.954;5.932;2023-04-06T09:42:48;11.70;59.20
53653;DHT22;39553;52.954;5.932;2023-04-06T09:45:15;11.70;60.30
53653;DHT22;39553;52.954;5.932;2023-04-06T09:47:44;11.90;61.20
53653;DHT22;39553;52.954;5.932;2023-04-06T09:50:12;12.00;59.30
53653;DHT22;39553;52.954;5.932;2023-04-06T09:52:42;12.00;59.60
53653;DHT22;39553;52.954;5.932;2023-04-06T09:55:17;11.90;59.60
53653;DHT22;39553;52.954;5.932;2023-04-06T09:58:04;11.80;59.40
53653;DHT22;39553;52.954;5.932;2023-04-06T10:00:40;11.80;58.90
53653;DHT22;39553;52.954;5.932;2023-04-06T10:06:17;11.60;58.70
53653;DHT22;39553;52.954;5.932;2023-04-06T10:08:47;11.70;59.60
53653;DHT22;39553;52.954;5.932;2023-04-06T10:11:15;11.70;60.10
53653;DHT22;39553;52.954;5.932;2023-04-06T10:13:41;11.80;59.90
53653;DHT22;39553;52.954;5.932;2023-04-06T10:16:13;11.90;60.20
53653;DHT22;39553;52.954;5.932;2023-04-06T10:18:43;12.00;60.00
53653;DHT22;39553;52.954;5.932;2023-04-06T10:21:18;12.20;60.10
53653;DHT22;39553;52.954;5.932;2023-04-06T10:23:53;12.40;60.00
53653;DHT22;39553;52.954;5.932;2023-04-06T10:26:21;12.50;60.10
53653;DHT22;39553;52.954;5.932;2023-04-06T10:28:49;12.60;59.40
53653;DHT22;39553;52.954;5.932;2023-04-06T10:31:15;12.70;59.30
53653;DHT22;39553;52.954;5.932;2023-04-06T10:33:59;12.70;59.10
53653;DHT22;39553;52.954;5.932;2023-04-06T10:36:35;12.70;58.00
53653;DHT22;39553;52.954;5.932;2023-04-06T10:39:02;12.50;58.40
53653;DHT22;39553;52.954;5.932;2023-04-06T10:41:42;12.40;58.10
53653;DHT22;39553;52.954;5.932;2023-04-06T10:44:30;12.50;57.10
53653;DHT22;39553;52.954;5.932;2023-04-06T10:46:57;12.40;57.30
53653;DHT22;39553;52.954;5.932;2023-04-06T10:49:24;12.40;58.10
53653;DHT22;39553;52.954;5.932;2023-04-06T10:51:53;12.50;58.10
53653;DHT22;39553;52.954;5.932;2023-04-06T10:54:21;12.50;57.20
53653;DHT22;39553;52.954;5.932;2023-04-06T10:56:48;12.40;57.30
53653;DHT22;39553;52.954;5.932;2023-04-06T10:59:21;12.40;57.30
53653;DHT22;39553;52.954;5.932;2023-04-06T11:01:47;12.30;56.90
53653;DHT22;39553;52.954;5.932;2023-04-06T11:04:16;12.30;57.40
53653;DHT22;39553;52.954;5.932;2023-04-06T11:06:47;12.20;57.90
53653;DHT22;39553;52.954;5.932;2023-04-06T11:09:26;12.20;57.50
53653;DHT22;39553;52.954;5.932;2023-04-06T11:11:53;12.10;58.00
53653;DHT22;39553;52.954;5.932;2023-04-06T11:14:19;12.10;58.30
53653;DHT22;39553;52.954;5.932;2023-04-06T11:16:47;12.20;58.70
53653;DHT22;39553;52.954;5.932;2023-04-06T11:19:33;12.40;58.70
53653;DHT22;39553;52.954;5.932;2023-04-06T11:22:07;12.40;58.40
53653;DHT22;39553;52.954;5.932;2023-04-06T11:24:33;12.50;59.20
53653;DHT22;39553;52.954;5.932;2023-04-06T11:26:59;12.50;57.60
53653;DHT22;39553;52.954;5.932;2023-04-06T11:29:30;12.30;57.90
53653;DHT22;39553;52.954;5.932;2023-04-06T11:32:02;12.20;58.70
53653;DHT22;39553;52.954;5.932;2023-04-06T11:34:30;12.30;59.30
53653;DHT22;39553;52.954;5.932;2023-04-06T11:36:57;12.40;58.90
53653;DHT22;39553;52.954;5.932;2023-04-06T11:39:25;12.20;57.90
53653;DHT22;39553;52.954;5.932;2023-04-06T11:41:57;12.10;58.50
53653;DHT22;39553;52.954;5.932;2023-04-06T11:44:35;12.10;59.40
53653;DHT22;39553;52.954;5.932;2023-04-06T11:47:06;12.20;59.00
53653;DHT22;39553;52.954;5.932;2023-04-06T11:49:33;12.30;59.20
53653;DHT22;39553;52.954;5.932;2023-04-06T11:52:01;12.30;58.90
53653;DHT22;39553;52.954;5.932;2023-04-06T11:54:35;12.30;58.90
53653;DHT22;39553;52.954;5.932;2023-04-06T11:57:03;12.30;59.60
53653;DHT22;39553;52.954;5.932;2023-04-06T11:59:30;12.40;60.10
53653;DHT22;39553;52.954;5.932;2023-04-06T12:01:57;12.30;60.80
53653;DHT22;39553;52.954;5.932;2023-04-06T12:04:23;12.20;61.60
53653;DHT22;39553;52.954;5.932;2023-04-06T12:06:49;12.10;62.90
53653;DHT22;39553;52.954;5.932;2023-04-06T12:09:18;12.00;63.20
53653;DHT22;39553;52.954;5.932;2023-04-06T12:11:44;11.80;65.20
53653;DHT22;39553;52.954;5.932;2023-04-06T12:14:11;11.80;66.10
53653;DHT22;39553;52.954;5.932;2023-04-06T12:16:37;11.80;67.80
53653;DHT22;39553;52.954;5.932;2023-04-06T12:19:03;11.70;67.50
53653;DHT22;39553;52.954;5.932;2023-04-06T12:21:28;11.60;69.40
53653;DHT22;39553;52.954;5.932;2023-04-06T12:23:56;11.60;69.60
53653;DHT22;39553;52.954;5.932;2023-04-06T12:26:22;11.70;71.20
53653;DHT22;39553;52.954;5.932;2023-04-06T12:28:48;11.70;74.20
53653;DHT22;39553;52.954;5.932;2023-04-06T12:31:18;11.60;75.90
53653;DHT22;39553;52.954;5.932;2023-04-06T12:33:48;11.60;77.60
53653;DHT22;39553;52.954;5.932;2023-04-06T12:36:15;11.60;80.20
53653;DHT22;39553;52.954;5.932;2023-04-06T12:38:44;11.50;81.50
53653;DHT22;39553;52.954;5.932;2023-04-06T12:41:11;11.40;81.30
53653;DHT22;39553;52.954;5.932;2023-04-06T12:43:39;11.50;81.40
53653;DHT22;39553;52.954;5.932;2023-04-06T12:46:04;11.40;80.30
53653;DHT22;39553;52.954;5.932;2023-04-06T12:48:31;11.40;79.80
53653;DHT22;39553;52.954;5.932;2023-04-06T12:50:58;11.40;80.70
53653;DHT22;39553;52.954;5.932;2023-04-06T12:53:25;11.40;81.50
53653;DHT22;39553;52.954;5.932;2023-04-06T12:55:54;11.20;81.90
53653;DHT22;39553;52.954;5.932;2023-04-06T12:58:20;11.10;82.60
53653;DHT22;39553;52.954;5.932;2023-04-06T13:00:49;11.00;83.90
53653;DHT22;39553;52.954;5.932;2023-04-06T13:03:21;10.80;84.60
53653;DHT22;39553;52.954;5.932;2023-04-06T13:05:49;10.70;84.90
53653;DHT22;39553;52.954;5.932;2023-04-06T13:08:17;10.50;85.30
53653;DHT22;39553;52.954;5.932;2023-04-06T13:10:47;10.40;87.20
53653;DHT22;39553;52.954;5.932;2023-04-06T13:13:29;10.30;89.20
53653;DHT22;39553;52.954;5.932;2023-04-06T13:15:59;10.10;90.50
53653;DHT22;39553;52.954;5.932;2023-04-06T13:18:27;10.00;91.30
53653;DHT22;39553;52.954;5.932;2023-04-06T13:20:52;9.90;91.90
53653;DHT22;39553;52.954;5.932;2023-04-06T13:23:18;9.70;92.10
53653;DHT22;39553;52.954;5.932;2023-04-06T13:25:44;9.80;93.60
53653;DHT22;39553;52.954;5.932;2023-04-06T13:28:10;9.80;94.00
53653;DHT22;39553;52.954;5.932;2023-04-06T13:30:36;9.80;94.00
53653;DHT22;39553;52.954;5.932;2023-04-06T13:33:02;9.70;94.40
53653;DHT22;39553;52.954;5.932;2023-04-06T13:35:30;9.60;95.10
53653;DHT22;39553;52.954;5.932;2023-04-06T13:37:55;9.50;95.40
53653;DHT22;39553;52.954;5.932;2023-04-06T13:40:21;9.50;95.40
53653;DHT22;39553;52.954;5.932;2023-04-06T13:42:47;9.50;96.10
53653;DHT22;39553;52.954;5.932;2023-04-06T13:45:13;9.40;97.30
53653;DHT22;39553;52.954;5.932;2023-04-06T13:47:39;9.40;97.40
53653;DHT22;39553;52.954;5.932;2023-04-06T13:50:05;9.40;97.00
53653;DHT22;39553;52.954;5.932;2023-04-06T13:52:31;9.40;97.60
53653;DHT22;39553;52.954;5.932;2023-04-06T13:54:57;9.40;99.00
53653;DHT22;39553;52.954;5.932;2023-04-06T13:57:23;9.40;98.70
53653;DHT22;39553;52.954;5.932;2023-04-06T13:59:49;9.40;98.70
53653;DHT22;39553;52.954;5.932;2023-04-06T14:02:17;9.30;99.30
53653;DHT22;39553;52.954;5.932;2023-04-06T14:04:45;9.20;99.50
53653;DHT22;39553;52.954;5.932;2023-04-06T14:07:10;9.40;99.90
53653;DHT22;39553;52.954;5.932;2023-04-06T14:09:36;9.10;99.90
53653;DHT22;39553;52.954;5.932;2023-04-06T14:12:02;9.00;99.90
53653;DHT22;39553;52.954;5.932;2023-04-06T14:14:30;9.00;99.90
53653;DHT22;39553;52.954;5.932;2023-04-06T14:16:56;8.90;99.90
53653;DHT22;39553;52.954;5.932;2023-04-06T14:19:22;8.80;99.90
53653;DHT22;39553;52.954;5.932;2023-04-06T14:21:48;8.80;99.90
53653;DHT22;39553;52.954;5.932;2023-04-06T14:24:14;8.80;99.90
53653;DHT22;39553;52.954;5.932;2023-04-06T14:26:41;8.70;99.90
53653;DHT22;39553;52.954;5.932;2023-04-06T14:29:08;8.70;99.90
53653;DHT22;39553;52.954;5.932;2023-04-06T14:31:34;8.60;99.90
53653;DHT22;39553;52.954;5.932;2023-04-06T14:34:01;8.50;99.90
53653;DHT22;39553;52.954;5.932;2023-04-06T14:36:32;8.40;99.90
53653;DHT22;39553;52.954;5.932;2023-04-06T14:39:05;8.40;99.90
53653;DHT22;39553;52.954;5.932;2023-04-06T14:41:32;8.40;99.90
53653;DHT22;39553;52.954;5.932;2023-04-06T14:43:58;8.30;99.90
53653;DHT22;39553;52.954;5.932;2023-04-06T14:46:23;8.80;99.90
53653;DHT22;39553;52.954;5.932;2023-04-06T14:48:50;8.30;99.90
53653;DHT22;39553;52.954;5.932;2023-04-06T14:51:16;9.20;99.90
53653;DHT22;39553;52.954;5.932;2023-04-06T14:53:42;8.20;99.90
53653;DHT22;39553;52.954;5.932;2023-04-06T14:56:08;8.20;99.90
53653;DHT22;39553;52.954;5.932;2023-04-06T14:58:34;8.20;99.90
53653;DHT22;39553;52.954;5.932;2023-04-06T15:01:02;8.20;99.90
53653;DHT22;39553;52.954;5.932;2023-04-06T15:03:28;8.10;99.90
53653;DHT22;39553;52.954;5.932;2023-04-06T15:05:58;8.10;99.90
53653;DHT22;39553;52.954;5.932;2023-04-06T15:08:24;8.10;99.90
53653;DHT22;39553;52.954;5.932;2023-04-06T15:10:51;8.10;99.90
53653;DHT22;39553;52.954;5.932;2023-04-06T15:13:18;8.30;99.90
53653;DHT22;39553;52.954;5.932;2023-04-06T15:15:44;8.00;99.90
53653;DHT22;39553;52.954;5.932;2023-04-06T15:18:11;7.90;99.90
53653;DHT22;39553;52.954;5.932;2023-04-06T15:20:40;7.90;99.90
53653;DHT22;39553;52.954;5.932;2023-04-06T15:23:07;7.80;99.90
53653;DHT22;39553;52.954;5.932;2023-04-06T15:25:33;7.80;99.90
53653;DHT22;39553;52.954;5.932;2023-04-06T15:27:58;8.10;99.90
53653;DHT22;39553;52.954;5.932;2023-04-06T15:30:24;8.00;99.90
53653;DHT22;39553;52.954;5.932;2023-04-06T15:32:56;7.80;99.90
53653;DHT22;39553;52.954;5.932;2023-04-06T15:35:23;7.70;99.90
53653;DHT22;39553;52.954;5.932;2023-04-06T15:37:49;7.60;99.90
53653;DHT22;39553;52.954;5.932;2023-04-06T15:40:14;7.50;99.90
53653;DHT22;39553;52.954;5.932;2023-04-06T15:42:41;7.50;99.90
53653;DHT22;39553;52.954;5.932;2023-04-06T15:45:11;7.40;99.90